Time;durP1;ratioP1;P1;durP2;ratioP2;P2;SDS_P1;SDS_P2;PMS_P1;PMS_P2;Temp;Humidity;BMP_temperature;BMP_pressure;BME280_temperature;BME280_humidity;BME280_pressure;Samples;Min_cycle;Max_cycle;Signal;HPM_P1;HPM_P2
2023/12/07 00:01:05;;;;;;;12.23;7.93;;;;;;;;;;4981682;28;20502;-77
2023/12/07 00:03:30;;;;;;;12.90;9.05;;;;;;;;;;5017884;28;20028;-76
2023/12/07 00:05:55;;;;;;;13.00;8.43;;;;;;;;;;4997760;28;20031;-76
2023/12/07 00:08:21;;;;;;;12.13;7.85;;;;;;;;;;4978841;28;20030;-76
2023/12/07 00:10:46;;;;;;;12.82;8.02;;;;;;;;;;4981162;28;20471;-77
2023/12/07 00:13:11;;;;;;;15.05;9.07;;;;;;;;;;4980758;28;20109;-77
2023/12/07 00:15:36;;;;;;;13.27;8.57;;;;;;;;;;4972204;28;20106;-76
2023/12/07 00:18:02;;;;;;;14.25;9.75;;;;;;;;;;4974219;28;20035;-76
2023/12/07 00:20:28;;;;;;;13.95;9.15;;;;;;;;;;4974471;28;20035;-76
2023/12/07 00:22:53;;;;;;;14.38;9.68;;;;;;;;;;4977130;28;20035;-76
2023/12/07 00:25:18;;;;;;;15.15;10.77;;;;;;;;;;4978671;28;20038;-75
2023/12/07 00:27:43;;;;;;;15.20;10.27;;;;;;;;;;5004127;28;20376;-76
2023/12/07 00:30:09;;;;;;;15.20;10.00;;;;;;;;;;4974718;28;20121;-76
2023/12/07 00:32:34;;;;;;;16.98;11.65;;;;;;;;;;4973594;28;20441;-76
2023/12/07 00:34:59;;;;;;;16.13;10.82;;;;;;;;;;4981229;28;20486;-76
2023/12/07 00:37:25;;;;;;;16.48;10.90;;;;;;;;;;4978002;28;20022;-76
2023/12/07 00:39:50;;;;;;;17.63;11.63;;;;;;;;;;4980557;28;20057;-76
2023/12/07 00:42:15;;;;;;;17.30;11.60;;;;;;;;;;4976635;28;20035;-77
2023/12/07 00:44:40;;;;;;;15.45;10.88;;;;;;;;;;4972208;28;20027;-76
2023/12/07 00:47:06;;;;;;;15.70;11.18;;;;;;;;;;4974839;28;20041;-76
2023/12/07 00:49:31;;;;;;;17.02;10.25;;;;;;;;;;4974316;28;20395;-76
2023/12/07 00:51:56;;;;;;;15.13;9.60;;;;;;;;;;4984536;28;20031;-76
2023/12/07 00:54:21;;;;;;;15.30;11.10;;;;;;;;;;4985083;28;20057;-76
2023/12/07 00:56:46;;;;;;;14.13;9.50;;;;;;;;;;4999006;28;20036;-76
2023/12/07 00:59:11;;;;;;;14.30;10.18;;;;;;;;;;4974736;28;20070;-76
2023/12/07 01:01:38;;;;;;;15.32;10.18;;;;;;;;;;4973588;28;20035;-76
2023/12/07 01:04:04;;;;;;;16.15;10.73;;;;;;;;;;4977314;28;20042;-76
2023/12/07 01:06:29;;;;;;;15.23;10.32;;;;;;;;;;4977628;28;20039;-76
2023/12/07 01:08:54;;;;;;;15.48;10.40;;;;;;;;;;4986596;28;20039;-76
2023/12/07 01:11:19;;;;;;;16.15;11.63;;;;;;;;;;4977235;28;20029;-76
2023/12/07 01:13:45;;;;;;;14.45;9.48;;;;;;;;;;4977808;28;20579;-75
2023/12/07 01:16:10;;;;;;;17.40;10.55;;;;;;;;;;4979264;28;20039;-75
2023/12/07 01:18:35;;;;;;;19.67;11.93;;;;;;;;;;4980775;28;20065;-76
2023/12/07 01:21:00;;;;;;;15.35;10.57;;;;;;;;;;4979958;28;20045;-76
2023/12/07 01:23:25;;;;;;;18.33;12.02;;;;;;;;;;4978202;28;20041;-76
2023/12/07 01:25:51;;;;;;;17.40;11.20;;;;;;;;;;4971139;28;20034;-76
2023/12/07 01:28:16;;;;;;;16.02;11.10;;;;;;;;;;4973496;28;20105;-76
2023/12/07 01:30:41;;;;;;;17.85;11.88;;;;;;;;;;4974054;28;20073;-75
2023/12/07 01:33:06;;;;;;;16.33;11.63;;;;;;;;;;4980506;28;20034;-76
2023/12/07 01:35:31;;;;;;;16.23;11.60;;;;;;;;;;4976687;28;20038;-75
2023/12/07 01:37:57;;;;;;;17.10;12.20;;;;;;;;;;4980381;28;20118;-76
2023/12/07 01:40:22;;;;;;;17.33;12.52;;;;;;;;;;4984844;28;20030;-76
2023/12/07 01:42:51;;;;;;;19.33;12.75;;;;;;;;;;4973167;28;20062;-76
2023/12/07 01:45:16;;;;;;;18.35;12.60;;;;;;;;;;4983635;28;20580;-76
2023/12/07 01:47:41;;;;;;;18.05;12.23;;;;;;;;;;4979293;28;20035;-76
2023/12/07 01:50:07;;;;;;;16.63;12.15;;;;;;;;;;4979989;28;20030;-76
2023/12/07 01:52:34;;;;;;;16.02;10.57;;;;;;;;;;4977767;28;20192;-76
2023/12/07 01:54:59;;;;;;;16.20;11.45;;;;;;;;;;4972117;28;20042;-76
2023/12/07 01:57:25;;;;;;;18.73;11.80;;;;;;;;;;4973568;28;20043;-76
2023/12/07 01:59:50;;;;;;;16.75;11.38;;;;;;;;;;4975475;28;20038;-76
2023/12/07 02:02:15;;;;;;;18.13;11.98;;;;;;;;;;4978346;28;20486;-76
2023/12/07 02:04:40;;;;;;;19.27;13.68;;;;;;;;;;4978029;28;20041;-76
2023/12/07 02:07:06;;;;;;;18.23;12.05;;;;;;;;;;4973932;28;20038;-76
2023/12/07 02:09:32;;;;;;;17.33;12.25;;;;;;;;;;4991226;28;20118;-76
2023/12/07 02:11:57;;;;;;;17.38;11.68;;;;;;;;;;4996642;28;20114;-76
2023/12/07 02:14:23;;;;;;;16.52;11.32;;;;;;;;;;4975276;28;20031;-76
2023/12/07 02:16:50;;;;;;;15.85;10.73;;;;;;;;;;4976874;28;20050;-76
2023/12/07 02:19:29;;;;;;;17.20;11.95;;;;;;;;;;4979313;28;20073;-76
2023/12/07 02:21:59;;;;;;;18.08;13.82;;;;;;;;;;4979422;28;20054;-76
2023/12/07 02:24:25;;;;;;;16.73;11.57;;;;;;;;;;4974092;28;20026;-76
2023/12/07 02:26:51;;;;;;;16.63;12.32;;;;;;;;;;4977163;28;20034;-76
2023/12/07 02:29:16;;;;;;;19.27;13.73;;;;;;;;;;4976907;28;20046;-76
2023/12/07 02:31:41;;;;;;;19.20;13.82;;;;;;;;;;4976574;28;20023;-76
2023/12/07 02:34:06;;;;;;;18.90;12.30;;;;;;;;;;4977088;28;20042;-76
2023/12/07 02:36:34;;;;;;;16.15;11.68;;;;;;;;;;4970932;28;20030;-76
2023/12/07 02:39:01;;;;;;;17.80;12.38;;;;;;;;;;4973506;28;20043;-77
2023/12/07 02:41:27;;;;;;;18.52;12.93;;;;;;;;;;4978086;28;20126;-76
2023/12/07 02:43:52;;;;;;;17.77;13.50;;;;;;;;;;4973746;28;20070;-76
2023/12/07 02:46:17;;;;;;;18.45;13.00;;;;;;;;;;4992460;28;20068;-77
2023/12/07 02:48:42;;;;;;;19.48;13.10;;;;;;;;;;4969874;28;20138;-76
2023/12/07 02:51:07;;;;;;;16.75;12.10;;;;;;;;;;4972273;28;20101;-76
2023/12/07 02:53:33;;;;;;;20.50;12.82;;;;;;;;;;4974217;28;20031;-77
2023/12/07 02:55:59;;;;;;;16.20;11.40;;;;;;;;;;4975539;28;20509;-77
2023/12/07 02:58:24;;;;;;;20.75;15.30;;;;;;;;;;4976261;28;20033;-76
2023/12/07 03:00:49;;;;;;;21.40;15.07;;;;;;;;;;4981080;28;20446;-76
2023/12/07 03:03:14;;;;;;;16.85;11.55;;;;;;;;;;4982448;28;20040;-76
2023/12/07 03:05:40;;;;;;;17.88;13.10;;;;;;;;;;4976195;28;20098;-76
2023/12/07 03:08:05;;;;;;;19.25;13.23;;;;;;;;;;4982311;28;20498;-76
2023/12/07 03:10:30;;;;;;;18.83;12.95;;;;;;;;;;4988295;28;20515;-75
2023/12/07 03:12:55;;;;;;;21.25;14.50;;;;;;;;;;4981305;28;20023;-76
2023/12/07 03:15:20;;;;;;;19.33;13.30;;;;;;;;;;4986876;28;20037;-76
2023/12/07 03:17:45;;;;;;;19.35;13.20;;;;;;;;;;4986336;28;20026;-76
2023/12/07 03:20:11;;;;;;;18.90;13.45;;;;;;;;;;4978167;28;20043;-76
2023/12/07 03:22:36;;;;;;;21.15;14.73;;;;;;;;;;4978372;28;20030;-76
2023/12/07 03:25:01;;;;;;;20.80;14.88;;;;;;;;;;4979788;28;20105;-76
2023/12/07 03:27:28;;;;;;;25.65;16.48;;;;;;;;;;4979549;28;20043;-76
2023/12/07 03:29:53;;;;;;;24.33;16.45;;;;;;;;;;4976159;28;20144;-76
2023/12/07 03:32:18;;;;;;;24.05;15.70;;;;;;;;;;4976053;28;20494;-76
2023/12/07 03:34:43;;;;;;;22.23;14.30;;;;;;;;;;4975102;28;20035;-76
2023/12/07 03:37:09;;;;;;;21.83;15.18;;;;;;;;;;4979942;28;20102;-76
2023/12/07 03:39:34;;;;;;;22.13;14.75;;;;;;;;;;4988980;28;20432;-76
2023/12/07 03:41:59;;;;;;;22.45;15.60;;;;;;;;;;4982644;28;20029;-76
2023/12/07 03:44:26;;;;;;;21.48;14.63;;;;;;;;;;4973503;28;20034;-76
2023/12/07 03:46:51;;;;;;;22.38;15.85;;;;;;;;;;4973447;28;20035;-76
2023/12/07 03:49:16;;;;;;;22.67;14.90;;;;;;;;;;4976819;28;20505;-76
2023/12/07 03:51:42;;;;;;;20.40;14.25;;;;;;;;;;4976341;28;20027;-76
2023/12/07 03:54:07;;;;;;;20.67;14.73;;;;;;;;;;4980942;28;20065;-76
2023/12/07 03:56:32;;;;;;;20.95;14.43;;;;;;;;;;4979092;28;20050;-76
2023/12/07 03:58:57;;;;;;;22.77;14.82;;;;;;;;;;4972534;28;20456;-76
2023/12/07 04:01:23;;;;;;;22.85;16.58;;;;;;;;;;4975263;28;20490;-75
2023/12/07 04:03:49;;;;;;;20.98;13.35;;;;;;;;;;4974042;28;20023;-76
2023/12/07 04:06:14;;;;;;;20.33;14.00;;;;;;;;;;4979033;28;20395;-76
2023/12/07 04:08:40;;;;;;;21.30;14.02;;;;;;;;;;4991986;28;20058;-76
2023/12/07 04:11:05;;;;;;;19.77;14.98;;;;;;;;;;4979630;28;20132;-76
2023/12/07 04:13:30;;;;;;;17.75;12.93;;;;;;;;;;4974625;28;20038;-76
2023/12/07 04:15:55;;;;;;;20.60;12.98;;;;;;;;;;4992436;28;20188;-76
2023/12/07 04:18:20;;;;;;;19.13;14.38;;;;;;;;;;5001426;28;20041;-76
2023/12/07 04:20:45;;;;;;;19.85;13.15;;;;;;;;;;4988831;28;20546;-76
2023/12/07 04:23:11;;;;;;;18.42;12.82;;;;;;;;;;4991390;28;20031;-76
2023/12/07 04:25:36;;;;;;;21.50;15.13;;;;;;;;;;4974511;28;20089;-76
2023/12/07 04:28:01;;;;;;;18.40;13.70;;;;;;;;;;4975723;28;20030;-76
2023/12/07 04:30:26;;;;;;;19.48;13.77;;;;;;;;;;4980045;28;20092;-76
2023/12/07 04:32:51;;;;;;;20.38;14.10;;;;;;;;;;4975831;28;20054;-76
2023/12/07 04:35:17;;;;;;;18.58;13.68;;;;;;;;;;4979229;28;20026;-76
2023/12/07 04:37:42;;;;;;;21.58;14.90;;;;;;;;;;4991802;28;20048;-76
2023/12/07 04:40:07;;;;;;;21.48;15.57;;;;;;;;;;4980207;28;20113;-76
2023/12/07 04:42:32;;;;;;;22.30;14.32;;;;;;;;;;4973881;28;20027;-76
2023/12/07 04:44:58;;;;;;;21.45;14.80;;;;;;;;;;4975138;28;20039;-76
2023/12/07 04:47:23;;;;;;;23.60;16.27;;;;;;;;;;4977262;28;20038;-76
2023/12/07 04:49:48;;;;;;;24.02;17.08;;;;;;;;;;4976970;28;20038;-76
2023/12/07 04:52:14;;;;;;;23.35;15.80;;;;;;;;;;4984958;28;20099;-76
2023/12/07 04:54:39;;;;;;;23.48;15.48;;;;;;;;;;4971950;28;20030;-76
2023/12/07 04:57:04;;;;;;;25.35;17.52;;;;;;;;;;4973993;28;20034;-78
2023/12/07 04:59:29;;;;;;;24.90;17.55;;;;;;;;;;4974449;28;20125;-76
2023/12/07 05:01:54;;;;;;;25.42;16.38;;;;;;;;;;4977166;28;20026;-76
2023/12/07 05:04:20;;;;;;;25.90;17.35;;;;;;;;;;4978974;28;20109;-76
2023/12/07 05:06:45;;;;;;;30.48;17.83;;;;;;;;;;4981117;28;20030;-77
2023/12/07 05:09:10;;;;;;;25.55;17.42;;;;;;;;;;4975384;28;20054;-76
2023/12/07 05:11:36;;;;;;;26.85;17.63;;;;;;;;;;4978103;28;20491;-76
2023/12/07 05:14:03;;;;;;;26.55;17.70;;;;;;;;;;4975944;28;20104;-76
2023/12/07 05:16:28;;;;;;;27.83;18.35;;;;;;;;;;4976681;28;20088;-76
2023/12/07 05:18:53;;;;;;;26.55;17.85;;;;;;;;;;4979243;28;20030;-77
2023/12/07 05:21:18;;;;;;;23.80;15.35;;;;;;;;;;4973068;28;20050;-76
2023/12/07 05:23:43;;;;;;;22.48;16.02;;;;;;;;;;4976874;28;20026;-76
2023/12/07 05:26:10;;;;;;;53.22;31.33;;;;;;;;;;4977737;28;20027;-76
2023/12/07 05:28:36;;;;;;;29.15;18.17;;;;;;;;;;4975734;28;20026;-76
2023/12/07 05:31:01;;;;;;;23.35;15.75;;;;;;;;;;4981894;28;20080;-79
2023/12/07 05:33:27;;;;;;;24.67;17.23;;;;;;;;;;4991744;28;20060;-76
2023/12/07 05:35:52;;;;;;;22.17;14.50;;;;;;;;;;4980544;28;20070;-76
2023/12/07 05:38:18;;;;;;;24.70;17.20;;;;;;;;;;4981599;28;20474;-76
2023/12/07 05:40:43;;;;;;;26.15;18.33;;;;;;;;;;5002132;28;20041;-76
2023/12/07 05:43:08;;;;;;;27.38;16.55;;;;;;;;;;4997065;28;20129;-76
2023/12/07 05:45:33;;;;;;;25.20;16.85;;;;;;;;;;4997324;28;20030;-75
2023/12/07 05:47:59;;;;;;;28.40;18.00;;;;;;;;;;4983258;28;20069;-76
2023/12/07 05:50:24;;;;;;;25.98;17.63;;;;;;;;;;4978000;28;20060;-76
2023/12/07 05:52:49;;;;;;;25.23;17.20;;;;;;;;;;4974679;28;20487;-76
2023/12/07 05:55:14;;;;;;;23.65;15.85;;;;;;;;;;4976885;28;20030;-76
2023/12/07 05:57:40;;;;;;;22.70;14.23;;;;;;;;;;4976049;28;20030;-76
2023/12/07 06:00:09;;;;;;;25.90;16.25;;;;;;;;;;4987954;28;20041;-76
2023/12/07 06:02:37;;;;;;;24.83;15.98;;;;;;;;;;4981565;28;20035;-75
2023/12/07 06:05:05;;;;;;;26.25;16.15;;;;;;;;;;4976609;28;20035;-75
2023/12/07 06:07:30;;;;;;;30.45;17.85;;;;;;;;;;4978211;28;20111;-75
2023/12/07 06:09:55;;;;;;;24.67;15.48;;;;;;;;;;4976815;28;20417;-75
2023/12/07 06:12:21;;;;;;;26.50;17.90;;;;;;;;;;4987863;28;20121;-75
2023/12/07 06:14:47;;;;;;;25.13;16.63;;;;;;;;;;4982571;28;20038;-75
2023/12/07 06:17:12;;;;;;;26.05;16.35;;;;;;;;;;5002140;28;20113;-75
2023/12/07 06:19:37;;;;;;;25.25;17.20;;;;;;;;;;5032785;28;20024;-75
2023/12/07 06:22:02;;;;;;;25.02;16.08;;;;;;;;;;4992615;28;20498;-75
2023/12/07 06:24:27;;;;;;;25.23;16.27;;;;;;;;;;4995578;28;20037;-75
2023/12/07 06:26:53;;;;;;;23.42;15.68;;;;;;;;;;4988540;28;20037;-75
2023/12/07 06:29:18;;;;;;;22.70;16.48;;;;;;;;;;4978623;28;20084;-75
2023/12/07 06:31:44;;;;;;;26.02;16.55;;;;;;;;;;4995315;28;20019;-75
2023/12/07 06:34:09;;;;;;;24.58;16.15;;;;;;;;;;5014369;28;20034;-75
2023/12/07 06:36:35;;;;;;;25.52;16.70;;;;;;;;;;4972709;28;20398;-75
2023/12/07 06:39:01;;;;;;;26.83;18.67;;;;;;;;;;4975657;28;20066;-74
2023/12/07 06:41:26;;;;;;;26.30;15.32;;;;;;;;;;4979698;28;20068;-75
2023/12/07 06:43:51;;;;;;;25.10;16.02;;;;;;;;;;4976853;28;20105;-75
2023/12/07 06:46:17;;;;;;;22.40;15.02;;;;;;;;;;4977527;28;20371;-75
2023/12/07 06:48:42;;;;;;;24.60;15.65;;;;;;;;;;4973380;28;20145;-75
2023/12/07 06:51:07;;;;;;;24.73;14.55;;;;;;;;;;4978336;28;20031;-75
2023/12/07 06:53:32;;;;;;;26.45;16.95;;;;;;;;;;4978256;28;20042;-75
2023/12/07 06:55:58;;;;;;;23.73;15.05;;;;;;;;;;4987629;28;20117;-75
2023/12/07 06:58:23;;;;;;;23.05;15.48;;;;;;;;;;4978424;28;20091;-75
2023/12/07 07:00:49;;;;;;;24.02;15.52;;;;;;;;;;4978847;28;20034;-75
2023/12/07 07:03:14;;;;;;;24.27;15.25;;;;;;;;;;4987967;28;20026;-75
2023/12/07 07:05:40;;;;;;;25.13;16.05;;;;;;;;;;4983097;28;20603;-75
2023/12/07 07:08:07;;;;;;;21.95;15.45;;;;;;;;;;4982191;28;20114;-75
2023/12/07 07:10:32;;;;;;;25.58;16.77;;;;;;;;;;4982961;28;20076;-75
2023/12/07 07:13:04;;;;;;;25.70;16.33;;;;;;;;;;4987987;28;20482;-75
2023/12/07 07:15:29;;;;;;;21.17;14.68;;;;;;;;;;4990121;28;20022;-75
2023/12/07 07:17:54;;;;;;;29.27;18.40;;;;;;;;;;4975535;28;20114;-75
2023/12/07 07:20:20;;;;;;;23.60;15.73;;;;;;;;;;4979005;28;20030;-75
2023/12/07 07:22:45;;;;;;;24.00;14.77;;;;;;;;;;4978311;28;20046;-75
2023/12/07 07:25:11;;;;;;;24.77;16.15;;;;;;;;;;4979401;28;20043;-75
2023/12/07 07:27:36;;;;;;;24.27;17.10;;;;;;;;;;5007153;28;20625;-75
2023/12/07 07:30:04;;;;;;;22.80;15.30;;;;;;;;;;4983456;28;20544;-75
2023/12/07 07:32:29;;;;;;;22.35;14.98;;;;;;;;;;4989693;28;20024;-75
2023/12/07 07:34:54;;;;;;;22.73;15.60;;;;;;;;;;4977936;28;20035;-75
2023/12/07 07:37:19;;;;;;;23.35;15.65;;;;;;;;;;4980592;28;20038;-75
2023/12/07 07:39:44;;;;;;;25.60;16.85;;;;;;;;;;4978245;28;20038;-75
2023/12/07 07:42:10;;;;;;;25.00;17.20;;;;;;;;;;4976977;28;20023;-75
2023/12/07 07:44:35;;;;;;;24.20;16.20;;;;;;;;;;4974923;28;20505;-75
2023/12/07 07:47:00;;;;;;;34.65;21.98;;;;;;;;;;4983194;28;20042;-75
2023/12/07 07:49:25;;;;;;;29.70;18.55;;;;;;;;;;4978711;28;20041;-75
2023/12/07 07:51:51;;;;;;;27.98;19.33;;;;;;;;;;4982560;28;20023;-75
2023/12/07 07:54:16;;;;;;;24.80;16.00;;;;;;;;;;4974995;28;20035;-75
2023/12/07 07:56:42;;;;;;;27.20;16.27;;;;;;;;;;4973417;28;20058;-75
2023/12/07 07:59:08;;;;;;;25.58;17.40;;;;;;;;;;4977230;28;20402;-74
2023/12/07 08:01:33;;;;;;;25.00;17.02;;;;;;;;;;4976597;28;20035;-75
2023/12/07 08:03:58;;;;;;;29.33;19.27;;;;;;;;;;4978589;28;20084;-75
2023/12/07 08:06:23;;;;;;;27.08;17.65;;;;;;;;;;4980600;28;20509;-75
2023/12/07 08:08:49;;;;;;;27.85;17.42;;;;;;;;;;4972095;28;20073;-75
2023/12/07 08:11:15;;;;;;;24.95;16.05;;;;;;;;;;4982469;28;20030;-75
2023/12/07 08:13:40;;;;;;;26.98;16.40;;;;;;;;;;4974871;28;20038;-75
2023/12/07 08:16:08;;;;;;;23.63;15.07;;;;;;;;;;4977513;28;20425;-75
2023/12/07 08:18:33;;;;;;;26.77;18.65;;;;;;;;;;4977906;28;20115;-75
2023/12/07 08:20:58;;;;;;;26.10;16.10;;;;;;;;;;4978524;28;20622;-75
2023/12/07 08:23:23;;;;;;;27.90;17.92;;;;;;;;;;4986964;28;20045;-75
2023/12/07 08:25:49;;;;;;;28.27;17.30;;;;;;;;;;4985534;28;20435;-75
2023/12/07 08:28:14;;;;;;;28.27;17.85;;;;;;;;;;4984664;28;20031;-75
2023/12/07 08:30:39;;;;;;;29.45;17.98;;;;;;;;;;4982505;28;20027;-75
2023/12/07 08:33:04;;;;;;;24.05;16.42;;;;;;;;;;4979586;28;20034;-75
2023/12/07 08:35:29;;;;;;;24.23;16.20;;;;;;;;;;4983604;28;20139;-75
2023/12/07 08:37:55;;;;;;;28.35;17.67;;;;;;;;;;4972173;28;20030;-75
2023/12/07 08:40:20;;;;;;;25.77;18.08;;;;;;;;;;4979641;28;20118;-75
2023/12/07 08:42:46;;;;;;;24.63;16.00;;;;;;;;;;4975107;28;20027;-75
2023/12/07 08:45:11;;;;;;;24.95;15.88;;;;;;;;;;4981147;28;20043;-75
2023/12/07 08:47:36;;;;;;;24.83;15.77;;;;;;;;;;4985600;28;20092;-75
2023/12/07 08:50:01;;;;;;;27.88;18.48;;;;;;;;;;4976209;28;20110;-75
2023/12/07 08:52:27;;;;;;;27.13;17.33;;;;;;;;;;4979762;28;20027;-75
2023/12/07 08:54:52;;;;;;;25.05;15.75;;;;;;;;;;4973900;28;20027;-75
2023/12/07 08:57:17;;;;;;;24.40;16.48;;;;;;;;;;4977419;28;20026;-75
2023/12/07 08:59:42;;;;;;;27.85;17.48;;;;;;;;;;4986309;28;20438;-75
2023/12/07 09:02:08;;;;;;;24.88;16.33;;;;;;;;;;4987484;28;20038;-75
2023/12/07 09:04:33;;;;;;;26.17;17.20;;;;;;;;;;4983711;28;20045;-75
2023/12/07 09:06:58;;;;;;;26.63;16.52;;;;;;;;;;4986549;28;20034;-75
2023/12/07 09:09:23;;;;;;;24.27;15.48;;;;;;;;;;4984992;28;20061;-75
2023/12/07 09:11:48;;;;;;;26.08;17.38;;;;;;;;;;4980365;28;20046;-75
2023/12/07 09:14:14;;;;;;;22.45;15.68;;;;;;;;;;4987069;28;20379;-75
2023/12/07 09:16:45;;;;;;;24.08;15.57;;;;;;;;;;4978461;28;20043;-75
2023/12/07 09:19:12;;;;;;;28.53;17.60;;;;;;;;;;4972172;28;20035;-75
2023/12/07 09:21:37;;;;;;;24.95;15.90;;;;;;;;;;4982534;28;20377;-75
2023/12/07 09:24:02;;;;;;;23.83;16.25;;;;;;;;;;4975088;28;20122;-75
2023/12/07 09:26:27;;;;;;;20.98;14.10;;;;;;;;;;4977044;28;20050;-75
2023/12/07 09:28:53;;;;;;;23.33;15.35;;;;;;;;;;4980712;28;20042;-75
2023/12/07 09:31:18;;;;;;;24.60;16.13;;;;;;;;;;4980494;28;20537;-75
2023/12/07 09:33:43;;;;;;;23.88;15.45;;;;;;;;;;4971670;28;20027;-75
2023/12/07 09:36:08;;;;;;;24.60;15.07;;;;;;;;;;4973902;28;20023;-75
2023/12/07 09:38:37;;;;;;;24.73;16.40;;;;;;;;;;4975196;28;20038;-75
2023/12/07 09:41:02;;;;;;;27.08;17.77;;;;;;;;;;4980733;28;20042;-75
2023/12/07 09:43:27;;;;;;;25.30;16.13;;;;;;;;;;4987552;28;20030;-75
2023/12/07 09:45:54;;;;;;;24.90;15.73;;;;;;;;;;4987155;28;20042;-75
2023/12/07 09:48:19;;;;;;;21.67;14.95;;;;;;;;;;4978247;28;20155;-75
2023/12/07 09:50:44;;;;;;;26.20;16.65;;;;;;;;;;4981532;28;20092;-75
2023/12/07 09:53:10;;;;;;;25.65;15.93;;;;;;;;;;4977123;28;20023;-75
2023/12/07 09:55:35;;;;;;;24.95;17.15;;;;;;;;;;4976591;28;20112;-75
2023/12/07 09:58:00;;;;;;;24.55;16.45;;;;;;;;;;4977044;28;20035;-75
2023/12/07 10:00:26;;;;;;;23.10;14.98;;;;;;;;;;4971152;28;20066;-75
2023/12/07 10:02:51;;;;;;;26.73;16.95;;;;;;;;;;4972085;28;20034;-75
2023/12/07 10:05:16;;;;;;;26.05;17.00;;;;;;;;;;4975444;28;20050;-75
2023/12/07 10:07:42;;;;;;;25.92;17.63;;;;;;;;;;4974679;28;20045;-75
2023/12/07 10:10:08;;;;;;;26.30;18.27;;;;;;;;;;4980398;28;20042;-75
2023/12/07 10:12:34;;;;;;;26.05;17.35;;;;;;;;;;4984706;28;20402;-75
2023/12/07 10:15:02;;;;;;;28.63;19.17;;;;;;;;;;4975218;28;20027;-75
2023/12/07 10:17:43;;;;;;;25.95;17.92;;;;;;;;;;4973345;28;20030;-75
2023/12/07 10:20:08;;;;;;;24.80;16.73;;;;;;;;;;4978560;28;20043;-75
2023/12/07 10:22:34;;;;;;;25.13;16.25;;;;;;;;;;4977307;28;20398;-75
2023/12/07 10:24:59;;;;;;;25.48;17.05;;;;;;;;;;4981697;28;20054;-75
2023/12/07 10:27:25;;;;;;;25.40;17.23;;;;;;;;;;4987019;28;20054;-75
2023/12/07 10:29:50;;;;;;;28.15;17.42;;;;;;;;;;4980109;28;20027;-75
2023/12/07 10:32:15;;;;;;;25.52;16.25;;;;;;;;;;4997576;28;20053;-75
2023/12/07 10:34:40;;;;;;;28.45;17.33;;;;;;;;;;4986010;28;20177;-75
2023/12/07 10:37:06;;;;;;;25.33;17.70;;;;;;;;;;4981641;28;20035;-75
2023/12/07 10:39:31;;;;;;;27.05;18.00;;;;;;;;;;4985270;28;20069;-75
2023/12/07 10:42:01;;;;;;;27.83;16.45;;;;;;;;;;5004846;28;20124;-75
2023/12/07 10:44:27;;;;;;;28.60;17.67;;;;;;;;;;4975999;28;20060;-75
2023/12/07 10:46:53;;;;;;;28.50;18.45;;;;;;;;;;4976147;28;20054;-75
2023/12/07 10:49:21;;;;;;;28.58;18.08;;;;;;;;;;4978640;28;20113;-75
2023/12/07 10:52:06;;;;;;;27.58;17.55;;;;;;;;;;4983556;28;20106;-75
2023/12/07 10:54:44;;;;;;;37.50;22.80;;;;;;;;;;4986357;28;20096;-74
2023/12/07 10:57:13;;;;;;;27.65;17.23;;;;;;;;;;4988921;28;20453;-77
2023/12/07 10:59:40;;;;;;;26.38;17.60;;;;;;;;;;4989296;28;20030;-75
2023/12/07 11:02:06;;;;;;;24.02;15.60;;;;;;;;;;4983826;28;20042;-75
2023/12/07 11:04:31;;;;;;;29.73;19.05;;;;;;;;;;4994959;28;20482;-75
2023/12/07 11:06:59;;;;;;;25.15;16.35;;;;;;;;;;4981103;28;20034;-77
2023/12/07 11:09:26;;;;;;;25.35;16.60;;;;;;;;;;4987409;28;20114;-74
2023/12/07 11:11:55;;;;;;;26.75;18.00;;;;;;;;;;4999595;28;20028;-75
2023/12/07 11:14:21;;;;;;;26.20;17.90;;;;;;;;;;4984657;28;20042;-74
2023/12/07 11:16:46;;;;;;;26.20;18.08;;;;;;;;;;4987547;28;20057;-74
2023/12/07 11:19:35;;;;;;;28.73;19.15;;;;;;;;;;4988971;28;20075;-74
2023/12/07 11:22:01;;;;;;;29.27;18.38;;;;;;;;;;4982601;28;20070;-74
2023/12/07 11:24:27;;;;;;;26.63;16.88;;;;;;;;;;4982841;28;20458;-74
2023/12/07 11:26:52;;;;;;;25.95;16.42;;;;;;;;;;4995458;28;20107;-74
2023/12/07 11:29:20;;;;;;;23.73;16.33;;;;;;;;;;4996817;28;20122;-74
2023/12/07 11:31:46;;;;;;;25.10;16.70;;;;;;;;;;4997876;28;20453;-75
2023/12/07 11:34:13;;;;;;;23.27;15.10;;;;;;;;;;4995759;28;20117;-75
2023/12/07 11:36:39;;;;;;;21.95;13.50;;;;;;;;;;4992967;28;20027;-75
2023/12/07 11:39:07;;;;;;;25.95;16.70;;;;;;;;;;4979206;28;20034;-74
2023/12/07 11:41:42;;;;;;;23.73;15.63;;;;;;;;;;4984435;28;20069;-74
2023/12/07 11:44:09;;;;;;;23.58;15.45;;;;;;;;;;4979618;28;20041;-75
2023/12/07 11:46:34;;;;;;;21.42;14.30;;;;;;;;;;4978704;28;20065;-75
2023/12/07 11:49:00;;;;;;;19.98;14.18;;;;;;;;;;4980726;28;20605;-75
2023/12/07 11:51:26;;;;;;;23.08;16.08;;;;;;;;;;4980547;28;20039;-75
2023/12/07 11:53:52;;;;;;;22.92;15.25;;;;;;;;;;4977606;28;20026;-74
2023/12/07 11:56:20;;;;;;;20.98;14.32;;;;;;;;;;4979172;28;20034;-74
2023/12/07 11:58:45;;;;;;;22.42;14.65;;;;;;;;;;4976629;28;20563;-74
2023/12/07 12:01:10;;;;;;;21.45;15.15;;;;;;;;;;4979994;28;20038;-74
2023/12/07 12:03:36;;;;;;;22.60;15.82;;;;;;;;;;4982062;28;20057;-75
2023/12/07 12:06:05;;;;;;;21.13;14.60;;;;;;;;;;4980227;28;20038;-74
2023/12/07 12:08:30;;;;;;;22.70;15.75;;;;;;;;;;4975138;28;20113;-75
2023/12/07 12:10:59;;;;;;;20.15;13.85;;;;;;;;;;4979712;28;20129;-74
2023/12/07 12:13:33;;;;;;;25.75;16.60;;;;;;;;;;4976910;28;20034;-74
2023/12/07 12:15:58;;;;;;;22.85;16.25;;;;;;;;;;4978263;28;20113;-75
2023/12/07 12:18:25;;;;;;;22.20;14.73;;;;;;;;;;4986198;28;20110;-74
2023/12/07 12:20:51;;;;;;;22.40;15.18;;;;;;;;;;4986973;28;20038;-74
2023/12/07 12:23:16;;;;;;;22.40;15.50;;;;;;;;;;4980504;28;20027;-75
2023/12/07 12:25:41;;;;;;;24.85;16.92;;;;;;;;;;4982061;28;20034;-74
2023/12/07 12:28:07;;;;;;;25.98;17.33;;;;;;;;;;4981294;28;20077;-75
2023/12/07 12:30:32;;;;;;;23.42;15.38;;;;;;;;;;4983050;28;20409;-75
2023/12/07 12:32:57;;;;;;;21.95;15.30;;;;;;;;;;4983330;28;20030;-74
2023/12/07 12:35:23;;;;;;;21.80;14.50;;;;;;;;;;4974481;28;20406;-74
2023/12/07 12:37:49;;;;;;;24.52;15.93;;;;;;;;;;4979129;28;20545;-75
2023/12/07 12:40:18;;;;;;;22.60;15.10;;;;;;;;;;4984077;28;20091;-74
2023/12/07 12:42:44;;;;;;;25.10;16.67;;;;;;;;;;4980882;28;20039;-75
2023/12/07 12:45:13;;;;;;;22.85;16.02;;;;;;;;;;4977795;28;20134;-74
2023/12/07 12:47:39;;;;;;;26.13;17.30;;;;;;;;;;4975722;28;20088;-74
2023/12/07 12:50:05;;;;;;;24.23;16.23;;;;;;;;;;4985000;28;20506;-75
2023/12/07 12:52:31;;;;;;;24.02;16.55;;;;;;;;;;4982358;28;20057;-74
2023/12/07 12:54:56;;;;;;;23.25;15.65;;;;;;;;;;4977505;28;20022;-75
2023/12/07 12:57:22;;;;;;;23.77;15.73;;;;;;;;;;4982942;28;20062;-75
2023/12/07 12:59:48;;;;;;;25.40;15.55;;;;;;;;;;4981606;28;20465;-74
2023/12/07 13:02:13;;;;;;;22.52;15.20;;;;;;;;;;4972756;28;20047;-75
2023/12/07 13:04:38;;;;;;;23.42;15.50;;;;;;;;;;4980647;28;20128;-75
2023/12/07 13:07:04;;;;;;;22.98;15.90;;;;;;;;;;4986927;28;20493;-75
2023/12/07 13:09:29;;;;;;;26.85;16.95;;;;;;;;;;4978691;28;20033;-74
2023/12/07 13:11:54;;;;;;;23.75;15.48;;;;;;;;;;4986271;28;20031;-75
2023/12/07 13:14:19;;;;;;;23.00;15.75;;;;;;;;;;4984564;28;20084;-74
2023/12/07 13:16:44;;;;;;;22.42;15.93;;;;;;;;;;4980861;28;20074;-74
2023/12/07 13:19:10;;;;;;;24.65;16.38;;;;;;;;;;4974527;28;20459;-75
2023/12/07 13:21:35;;;;;;;29.40;17.27;;;;;;;;;;4976004;28;20038;-75
2023/12/07 13:24:00;;;;;;;27.25;17.25;;;;;;;;;;4980917;28;20084;-75
2023/12/07 13:26:25;;;;;;;24.58;16.30;;;;;;;;;;4995263;28;20518;-75
2023/12/07 13:28:50;;;;;;;25.50;18.05;;;;;;;;;;4975085;28;20031;-75
2023/12/07 13:31:16;;;;;;;26.33;17.33;;;;;;;;;;4980178;28;20041;-75
2023/12/07 13:33:41;;;;;;;27.35;18.67;;;;;;;;;;4993132;28;20027;-75
2023/12/07 13:36:07;;;;;;;26.42;17.90;;;;;;;;;;4976230;28;20027;-75
2023/12/07 13:38:33;;;;;;;26.23;18.23;;;;;;;;;;4978184;28;20474;-75
2023/12/07 13:40:59;;;;;;;25.00;16.80;;;;;;;;;;4980594;28;20031;-75
2023/12/07 13:43:24;;;;;;;26.35;17.33;;;;;;;;;;4971969;28;20030;-74
2023/12/07 13:45:50;;;;;;;26.38;17.83;;;;;;;;;;4972585;28;20402;-75
2023/12/07 13:48:15;;;;;;;25.45;16.83;;;;;;;;;;4982248;28;20062;-74
2023/12/07 13:50:40;;;;;;;25.13;16.38;;;;;;;;;;4975631;28;20039;-74
2023/12/07 13:53:06;;;;;;;25.58;17.25;;;;;;;;;;4978561;28;20033;-75
2023/12/07 13:55:31;;;;;;;27.60;17.15;;;;;;;;;;4976077;28;20088;-75
2023/12/07 13:57:57;;;;;;;25.55;16.30;;;;;;;;;;4980545;28;20027;-74
2023/12/07 14:00:22;;;;;;;24.83;15.88;;;;;;;;;;4979399;28;20058;-75
2023/12/07 14:02:47;;;;;;;27.38;17.70;;;;;;;;;;4972756;28;20476;-75
2023/12/07 14:05:12;;;;;;;24.55;16.30;;;;;;;;;;4977563;28;20042;-75
2023/12/07 14:07:38;;;;;;;26.13;16.02;;;;;;;;;;4977675;28;20031;-75
2023/12/07 14:10:03;;;;;;;28.33;16.60;;;;;;;;;;4981467;28;20062;-75